Time;durP1;ratioP1;P1;durP2;ratioP2;P2;SDS_P1;SDS_P2;PMS_P1;PMS_P2;Temp;Humidity;BMP_temperature;BMP_pressure;BME280_temperature;BME280_humidity;BME280_pressure;Samples;Min_cycle;Max_cycle;Signal;HPM_P1;HPM_P2
2022/05/06 00:02:16;;;;;;;;;11.25;10.75;;;;;14.98;59.46;101573.50;146614;666;47010;-72
2022/05/06 00:05:12;;;;;;;;;12.00;9.25;;;;;14.95;59.27;101571.69;146605;622;46920;-72
2022/05/06 00:08:05;;;;;;;;;11.25;8.00;;;;;14.92;59.42;101570.62;146614;650;46020;-69
2022/05/06 00:10:57;;;;;;;;;9.50;9.00;;;;;14.87;59.72;101570.41;146610;588;46014;-68
2022/05/06 00:13:52;;;;;;;;;9.25;9.00;;;;;14.79;59.71;101564.81;146615;571;46010;-67
2022/05/06 00:16:44;;;;;;;;;10.00;9.00;;;;;14.77;60.02;101573.41;146610;728;46013;-70
2022/05/06 00:19:36;;;;;;;;;10.00;9.00;;;;;14.74;60.97;101571.56;146612;703;46010;-71
2022/05/06 00:22:28;;;;;;;;;11.50;10.00;;;;;14.73;60.90;101584.50;146604;578;47016;-68
2022/05/06 00:25:22;;;;;;;;;10.75;10.25;;;;;14.69;61.13;101582.59;146612;590;46010;-70
2022/05/06 00:28:14;;;;;;;;;10.00;9.50;;;;;14.62;60.89;101584.00;146606;680;46016;-68
2022/05/06 00:31:07;;;;;;;;;13.50;10.00;;;;;14.51;60.45;101577.38;146614;570;46012;-71
2022/05/06 00:33:59;;;;;;;;;8.75;8.25;;;;;14.42;60.90;101575.16;146613;613;46916;-70
2022/05/06 00:36:51;;;;;;;;;10.25;8.75;;;;;14.38;60.41;101561.91;146616;573;45020;-72
2022/05/06 00:39:43;;;;;;;;;10.75;9.75;;;;;14.35;60.60;101561.75;146613;705;46016;-71
2022/05/06 00:42:36;;;;;;;;;10.50;8.75;;;;;14.34;60.61;101558.25;146634;615;45020;-72
2022/05/06 00:45:31;;;;;;;;;12.00;10.00;;;;;14.37;60.87;101554.91;146632;580;46012;-70
2022/05/06 00:48:34;;;;;;;;;11.75;10.00;;;;;14.40;60.42;101562.87;146628;595;45020;-70
2022/05/06 00:51:28;;;;;;;;;10.00;9.25;;;;;14.42;60.42;101561.22;146628;603;45916;-68
2022/05/06 00:54:22;;;;;;;;;11.00;10.00;;;;;14.41;60.62;101564.66;146633;613;45021;-68
2022/05/06 00:57:14;;;;;;;;;9.25;8.50;;;;;14.39;60.39;101558.47;146627;569;45016;-67
2022/05/06 01:00:19;;;;;;;;;10.75;10.75;;;;;14.41;60.56;101562.06;146638;597;44020;-67
2022/05/06 01:03:11;;;;;;;;;13.00;10.75;;;;;14.40;60.38;101566.38;146635;669;45034;-67
2022/05/06 01:06:07;;;;;;;;;11.00;10.00;;;;;14.37;60.39;101566.22;146628;612;45020;-69
2022/05/06 01:08:59;;;;;;;;;10.25;9.00;;;;;14.29;60.80;101560.62;146631;583;45014;-69
2022/05/06 01:11:51;;;;;;;;;11.50;9.00;;;;;14.25;60.51;101558.69;146631;633;46010;-69
2022/05/06 01:14:43;;;;;;;;;7.75;7.75;;;;;14.23;60.53;101560.31;146634;652;45016;-67
2022/05/06 01:17:36;;;;;;;;;10.25;10.00;;;;;14.26;60.78;101560.47;146637;578;46010;-68
2022/05/06 01:20:29;;;;;;;;;10.75;8.50;;;;;14.28;60.67;101563.16;146633;576;46014;-68
2022/05/06 01:23:22;;;;;;;;;11.75;10.25;;;;;14.25;60.69;101553.47;146632;569;45021;-68
2022/05/06 01:26:14;;;;;;;;;14.00;12.75;;;;;14.17;60.99;101549.56;146630;569;45014;-66
2022/05/06 01:29:07;;;;;;;;;10.25;9.75;;;;;14.10;61.08;101550.09;146632;569;44915;-69
2022/05/06 01:32:00;;;;;;;;;11.75;10.75;;;;;14.09;61.35;101550.94;146627;637;45915;-67
2022/05/06 01:34:54;;;;;;;;;12.00;11.00;;;;;14.08;61.37;101546.50;146632;571;45010;-65
2022/05/06 01:37:51;;;;;;;;;11.75;9.25;;;;;14.07;61.26;101543.00;146631;601;45017;-65
2022/05/06 01:40:51;;;;;;;;;12.00;10.50;;;;;14.09;61.02;101537.88;146623;620;47010;-66
2022/05/06 01:43:47;;;;;;;;;12.75;10.25;;;;;14.11;61.17;101538.84;146602;664;46014;-67
2022/05/06 01:46:40;;;;;;;;;10.50;10.00;;;;;14.15;61.50;101543.41;146608;574;47012;-66
2022/05/06 01:49:35;;;;;;;;;11.25;11.25;;;;;14.12;60.96;101543.25;146604;618;46034;-67
2022/05/06 01:52:29;;;;;;;;;8.50;8.50;;;;;14.07;61.40;101545.63;146612;591;46020;-66
2022/05/06 01:55:22;;;;;;;;;9.00;8.00;;;;;14.00;61.32;101545.25;146615;633;46012;-66
2022/05/06 01:58:14;;;;;;;;;9.50;9.50;;;;;13.95;61.58;101541.50;146613;569;46010;-65
2022/05/06 02:01:06;;;;;;;;;8.50;8.00;;;;;13.95;61.58;101542.37;146610;564;46901;-69
2022/05/06 02:07:08;;;;;;;;;10.00;9.25;;;;;13.84;61.37;101544.47;146609;615;46018;-69
2022/05/06 02:10:01;;;;;;;;;10.50;9.00;;;;;13.78;62.45;101551.09;146614;656;46010;-69
2022/05/06 02:12:53;;;;;;;;;11.00;10.00;;;;;13.70;62.17;101555.87;146611;569;46012;-70
2022/05/06 02:15:45;;;;;;;;;10.75;10.00;;;;;13.62;62.43;101547.69;146616;625;46012;-65
2022/05/06 02:18:38;;;;;;;;;11.50;9.75;;;;;13.53;62.26;101551.53;146612;671;46016;-65
2022/05/06 02:21:30;;;;;;;;;11.00;9.75;;;;;13.49;62.47;101554.75;146613;688;47010;-66
2022/05/06 02:24:23;;;;;;;;;13.00;12.00;;;;;13.44;62.64;101546.72;146610;564;46016;-68
2022/05/06 02:27:15;;;;;;;;;9.75;9.75;;;;;13.43;62.86;101552.75;146612;595;46020;-68
2022/05/06 02:33:23;;;;;;;;;10.50;10.50;;;;;13.48;63.57;101551.25;146609;569;46020;-67
2022/05/06 02:36:16;;;;;;;;;12.00;10.50;;;;;13.46;63.71;101549.38;146610;665;46012;-66
2022/05/06 02:39:08;;;;;;;;;11.25;11.00;;;;;13.45;63.20;101550.22;146604;564;46021;-65
2022/05/06 02:42:00;;;;;;;;;11.25;10.25;;;;;13.43;62.86;101557.03;146606;633;46915;-66
2022/05/06 02:44:52;;;;;;;;;13.75;10.00;;;;;13.43;63.38;101557.97;146611;581;46012;-66
2022/05/06 02:47:45;;;;;;;;;12.75;10.25;;;;;13.45;62.90;101558.91;146605;611;46941;-66
2022/05/06 02:50:37;;;;;;;;;13.00;12.00;;;;;13.47;62.72;101566.84;146616;580;46020;-65
2022/05/06 02:53:29;;;;;;;;;10.00;8.75;;;;;13.48;62.71;101568.59;146612;588;46017;-66
2022/05/06 02:56:21;;;;;;;;;13.25;10.75;;;;;13.50;62.47;101567.00;146615;577;46020;-66
2022/05/06 02:59:13;;;;;;;;;10.75;10.00;;;;;13.51;62.27;101567.06;146608;663;46017;-65
2022/05/06 03:02:06;;;;;;;;;11.75;9.50;;;;;13.56;61.78;101573.41;146614;581;46010;-66
2022/05/06 03:04:57;;;;;;;;;11.25;10.25;;;;;13.57;61.92;101579.53;146609;618;46012;-67
2022/05/06 03:07:50;;;;;;;;;9.50;9.00;;;;;13.61;61.73;101584.06;146611;606;47010;-68
2022/05/06 03:10:42;;;;;;;;;10.50;9.75;;;;;13.60;62.07;101584.91;146610;596;46014;-66
2022/05/06 03:13:34;;;;;;;;;8.75;8.25;;;;;13.59;62.38;101583.13;146611;575;46028;-66
2022/05/06 03:16:27;;;;;;;;;11.00;10.00;;;;;13.61;62.13;101590.19;146607;597;47012;-66
2022/05/06 03:19:19;;;;;;;;;11.00;11.00;;;;;13.61;62.12;101592.81;146615;563;46010;-66
2022/05/06 03:22:12;;;;;;;;;11.25;10.00;;;;;13.65;62.50;101593.84;146609;639;46915;-66
2022/05/06 03:25:04;;;;;;;;;11.00;10.00;;;;;13.63;62.53;101588.56;146613;582;46020;-65
2022/05/06 03:27:59;;;;;;;;;11.75;10.75;;;;;13.64;62.43;101594.66;146610;671;46016;-66
2022/05/06 03:30:52;;;;;;;;;9.00;9.00;;;;;13.63;62.26;101592.87;146611;639;47010;-65
2022/05/06 03:33:45;;;;;;;;;12.00;10.50;;;;;13.62;62.39;101597.19;146610;586;46012;-65
2022/05/06 03:36:38;;;;;;;;;12.50;11.00;;;;;13.62;62.45;101601.50;146612;588;46021;-65
2022/05/06 03:39:30;;;;;;;;;10.25;9.00;;;;;13.63;62.86;101606.78;146610;626;46016;-65
2022/05/06 03:42:22;;;;;;;;;11.25;10.00;;;;;13.62;62.75;101611.94;146630;565;45020;-66
2022/05/06 03:45:15;;;;;;;;;12.75;11.00;;;;;13.61;62.52;101611.06;146629;569;45915;-65
2022/05/06 03:48:07;;;;;;;;;10.75;10.00;;;;;13.58;62.67;101607.34;146631;584;45020;-66
2022/05/06 03:54:09;;;;;;;;;12.75;11.75;;;;;13.52;63.87;101610.56;146631;600;45020;-67
2022/05/06 03:57:01;;;;;;;;;14.50;12.50;;;;;13.54;64.19;101616.72;146629;666;45016;-66
2022/05/06 03:59:53;;;;;;;;;13.00;13.00;;;;;13.58;65.08;101623.00;146632;575;45021;-66
2022/05/06 04:02:46;;;;;;;;;12.50;11.25;;;;;13.67;64.98;101628.69;146628;577;45012;-65
2022/05/06 04:05:39;;;;;;;;;12.00;11.50;;;;;13.77;64.47;101617.03;146634;598;45020;-67
2022/05/06 04:08:32;;;;;;;;;12.50;10.00;;;;;13.88;64.43;101628.94;146630;593;45012;-65
2022/05/06 04:11:24;;;;;;;;;14.00;11.00;;;;;13.98;64.10;101631.19;146626;610;45020;-65
2022/05/06 04:14:16;;;;;;;;;8.00;8.00;;;;;14.10;64.33;101641.38;146635;564;45013;-65
2022/05/06 04:17:09;;;;;;;;;16.75;15.25;;;;;14.21;63.82;101634.13;146630;564;45020;-65
2022/05/06 04:23:29;;;;;;;;;14.50;14.00;;;;;14.41;63.68;101642.94;146629;583;45021;-64
2022/05/06 04:26:21;;;;;;;;;17.50;14.25;;;;;14.47;63.51;101633.69;146628;622;45016;-68
2022/05/06 04:29:13;;;;;;;;;15.25;12.00;;;;;14.59;64.00;101641.28;146629;564;45021;-68
2022/05/06 04:32:05;;;;;;;;;11.50;10.75;;;;;14.74;63.60;101649.88;146629;563;45012;-67
2022/05/06 04:34:57;;;;;;;;;14.25;13.25;;;;;14.89;63.25;101648.81;146631;581;45029;-68
2022/05/06 04:37:49;;;;;;;;;14.50;13.50;;;;;15.06;62.99;101647.91;146630;603;45016;-67
2022/05/06 04:40:42;;;;;;;;;12.75;11.00;;;;;15.25;62.41;101649.69;146622;616;47010;-67
2022/05/06 04:43:34;;;;;;;;;13.25;12.75;;;;;15.47;62.20;101656.78;146609;682;46016;-67
2022/05/06 04:46:27;;;;;;;;;14.00;13.50;;;;;15.68;62.35;101652.59;146609;635;46020;-66
2022/05/06 04:49:19;;;;;;;;;12.75;12.50;;;;;15.88;61.68;101661.31;146608;601;46015;-66
2022/05/06 04:52:12;;;;;;;;;15.50;15.00;;;;;16.10;61.37;101651.78;146609;617;45021;-66
2022/05/06 04:55:04;;;;;;;;;21.25;19.75;;;;;16.30;59.46;101661.41;146606;574;46016;-65
2022/05/06 04:57:56;;;;;;;;;18.00;16.75;;;;;16.47;59.88;101664.72;146607;617;46011;-65
2022/05/06 05:00:48;;;;;;;;;17.75;15.75;;;;;16.64;58.01;101665.47;146606;598;46012;-64
2022/05/06 05:03:42;;;;;;;;;16.50;15.75;;;;;16.78;59.17;101655.56;146609;625;47012;-65
2022/05/06 05:06:35;;;;;;;;;16.25;14.25;;;;;16.98;59.09;101659.91;146606;587;46017;-65
2022/05/06 05:09:27;;;;;;;;;16.25;15.75;;;;;17.17;58.80;101665.88;146608;563;46020;-64
2022/05/06 05:12:19;;;;;;;;;16.00;14.00;;;;;17.36;58.53;101668.38;146603;576;46016;-67
2022/05/06 05:15:13;;;;;;;;;16.50;16.50;;;;;17.53;57.86;101669.88;146605;645;46020;-65
2022/05/06 05:18:05;;;;;;;;;19.00;19.00;;;;;17.68;57.59;101672.19;146606;665;46016;-65
2022/05/06 05:20:57;;;;;;;;;18.75;16.50;;;;;17.78;58.08;101676.09;146608;586;46021;-65
2022/05/06 05:23:49;;;;;;;;;17.50;14.00;;;;;17.94;57.91;101677.53;146602;605;47014;-66
2022/05/06 05:26:43;;;;;;;;;16.00;15.25;;;;;18.09;58.21;101674.59;146608;585;46020;-65
2022/05/06 05:29:35;;;;;;;;;16.50;15.25;;;;;18.27;57.85;101675.25;146606;618;46014;-66
2022/05/06 05:32:28;;;;;;;;;17.00;14.00;;;;;18.47;58.22;101670.66;146610;597;46010;-66
2022/05/06 05:35:20;;;;;;;;;14.50;14.50;;;;;18.64;56.97;101664.25;146608;721;46915;-66
2022/05/06 05:38:12;;;;;;;;;12.50;12.50;;;;;18.80;57.50;101673.56;146608;593;46010;-66
2022/05/06 05:41:04;;;;;;;;;18.25;15.50;;;;;18.97;57.22;101668.88;146604;593;46915;-68
2022/05/06 05:50:18;;;;;;;;;18.50;14.25;;;;;18.58;56.11;101511.72;146609;603;46021;-67
2022/05/06 05:53:09;;;;;;;;;16.25;15.50;;;;;19.62;55.96;101669.09;146604;645;46016;-68
2022/05/06 05:56:02;;;;;;;;;13.50;12.75;;;;;19.74;55.19;101677.37;146609;656;46020;-67
2022/05/06 05:58:54;;;;;;;;;12.75;11.25;;;;;19.79;55.11;101681.03;146605;575;46016;-67
2022/05/06 06:01:47;;;;;;;;;15.75;11.75;;;;;19.82;55.02;101685.50;146606;570;46020;-67
2022/05/06 06:04:39;;;;;;;;;17.00;15.75;;;;;19.85;55.84;101688.22;146605;604;46016;-69
2022/05/06 06:07:32;;;;;;;;;12.75;11.00;;;;;19.92;56.04;101689.28;146612;563;46010;-67
2022/05/06 06:10:24;;;;;;;;;15.75;14.00;;;;;20.07;55.69;101694.97;146609;618;46012;-67
2022/05/06 06:13:16;;;;;;;;;17.50;14.00;;;;;20.19;54.94;101695.31;146607;664;46021;-66
2022/05/06 06:16:08;;;;;;;;;16.25;15.00;;;;;20.23;54.14;101691.03;146605;593;46016;-65
2022/05/06 06:19:00;;;;;;;;;15.75;15.75;;;;;20.23;54.51;101691.03;146610;608;47010;-65
2022/05/06 06:21:53;;;;;;;;;17.00;14.25;;;;;20.25;54.62;101694.59;146604;566;46016;-66
2022/05/06 06:24:45;;;;;;;;;16.50;16.00;;;;;20.30;54.99;101701.75;146608;616;46010;-67
2022/05/06 06:27:37;;;;;;;;;14.00;12.25;;;;;20.34;54.48;101689.56;146608;599;46017;-66
2022/05/06 06:30:29;;;;;;;;;12.00;11.50;;;;;20.39;54.54;101697.59;146609;650;46010;-66
2022/05/06 06:33:22;;;;;;;;;16.25;12.00;;;;;20.40;53.84;101713.41;146607;584;46016;-67
2022/05/06 06:36:14;;;;;;;;;12.00;11.50;;;;;20.42;54.36;101718.75;146607;621;46010;-68
2022/05/06 06:39:07;;;;;;;;;12.00;12.00;;;;;20.38;53.85;101720.41;146603;618;46016;-67
2022/05/06 06:41:59;;;;;;;;;19.75;14.00;;;;;20.41;53.96;101724.87;146607;589;47010;-65
2022/05/06 06:44:51;;;;;;;;;14.00;14.00;;;;;20.48;53.78;101732.09;146604;593;46016;-65
2022/05/06 06:47:44;;;;;;;;;17.00;15.00;;;;;20.58;53.68;101735.88;146607;661;46020;-65
2022/05/06 06:50:36;;;;;;;;;13.50;13.00;;;;;20.66;53.15;101729.97;146604;588;46017;-65
2022/05/06 06:53:28;;;;;;;;;14.50;12.25;;;;;20.69;53.23;101735.31;146611;615;45020;-65
2022/05/06 06:56:20;;;;;;;;;12.25;12.00;;;;;20.70;52.95;101739.72;146608;583;46013;-65
2022/05/06 06:59:12;;;;;;;;;14.50;14.50;;;;;20.75;52.51;101747.78;146609;648;46020;-66
2022/05/06 07:02:04;;;;;;;;;14.00;13.00;;;;;20.76;53.87;101741.63;146602;577;47915;-66
2022/05/06 07:04:58;;;;;;;;;15.00;13.75;;;;;20.77;53.62;101743.41;146606;619;47010;-65
2022/05/06 07:14:10;;;;;;;;;12.00;11.00;;;;;20.62;53.60;101729.84;146607;619;46016;-67
2022/05/06 07:17:02;;;;;;;;;11.50;11.00;;;;;20.60;53.80;101731.56;146609;566;46010;-66
2022/05/06 07:19:54;;;;;;;;;17.00;13.00;;;;;20.63;53.66;101729.00;146603;592;46017;-67
2022/05/06 07:22:47;;;;;;;;;15.25;14.25;;;;;20.65;53.32;101725.53;146606;602;46020;-66
2022/05/06 07:25:39;;;;;;;;;20.50;14.75;;;;;20.69;54.50;101716.88;146604;606;46016;-67
2022/05/06 07:28:31;;;;;;;;;13.00;13.00;;;;;20.90;54.69;101713.91;146605;634;46021;-68
2022/05/06 07:31:24;;;;;;;;;15.75;14.25;;;;;21.16;54.06;101698.69;146607;614;46016;-67
2022/05/06 07:34:16;;;;;;;;;17.00;14.75;;;;;21.38;52.98;101699.22;146607;586;46010;-66
2022/05/06 07:37:08;;;;;;;;;17.75;13.75;;;;;21.55;53.13;101695.19;146606;574;46014;-69
2022/05/06 07:40:00;;;;;;;;;13.50;13.00;;;;;21.64;53.07;101697.13;146607;662;46020;-70
2022/05/06 07:42:52;;;;;;;;;12.50;12.00;;;;;21.61;52.20;101700.59;146605;644;46017;-68
2022/05/06 07:45:45;;;;;;;;;15.25;13.50;;;;;21.51;52.43;101703.00;146607;575;46020;-68
2022/05/06 07:48:37;;;;;;;;;16.25;15.50;;;;;21.43;52.55;101703.75;146607;588;46915;-68
2022/05/06 07:51:29;;;;;;;;;14.75;12.75;;;;;21.37;53.02;101694.78;146609;624;46012;-68
2022/05/06 07:54:21;;;;;;;;;13.75;13.75;;;;;21.30;52.91;101699.00;146605;603;46014;-69
2022/05/06 07:57:14;;;;;;;;;12.25;12.25;;;;;21.20;53.13;101702.28;146609;585;46010;-69
2022/05/06 08:00:07;;;;;;;;;15.25;12.00;;;;;21.05;53.93;101700.16;146599;581;47914;-68
2022/05/06 08:06:10;;;;;;;;;15.50;12.50;;;;;20.96;53.60;101705.22;146606;581;46016;-68
2022/05/06 08:09:02;;;;;;;;;15.50;15.25;;;;;20.98;54.23;101707.03;146607;654;46020;-69
2022/05/06 08:11:54;;;;;;;;;15.50;14.25;;;;;21.02;53.28;101696.56;146606;619;46016;-68
2022/05/06 08:14:46;;;;;;;;;15.00;14.50;;;;;21.04;53.49;101706.31;146603;563;47010;-68
2022/05/06 08:17:37;;;;;;;;;21.00;17.50;;;;;21.07;53.67;101713.41;146607;599;46013;-69
2022/05/06 08:20:30;;;;;;;;;14.00;12.75;;;;;21.07;52.63;101719.56;146606;628;47010;-66
2022/05/06 08:23:23;;;;;;;;;13.75;12.75;;;;;21.05;53.27;101723.91;146608;609;46014;-67
2022/05/06 08:26:16;;;;;;;;;13.25;11.75;;;;;21.05;53.24;101731.81;146609;672;47010;-69
2022/05/06 08:29:08;;;;;;;;;14.50;12.25;;;;;21.06;53.18;101725.72;146603;563;46027;-68
2022/05/06 08:32:00;;;;;;;;;15.25;13.25;;;;;21.04;53.15;101734.44;146608;591;46012;-68
2022/05/06 08:34:52;;;;;;;;;11.00;9.00;;;;;21.05;52.30;101738.84;146605;598;46016;-68
2022/05/06 08:37:48;;;;;;;;;13.00;13.00;;;;;21.01;52.80;101745.78;146609;596;46012;-67
2022/05/06 08:40:41;;;;;;;;;17.75;14.00;;;;;21.01;52.41;101753.69;146608;597;46013;-66
2022/05/06 08:43:33;;;;;;;;;14.50;13.25;;;;;21.04;52.24;101752.88;146609;681;46010;-67
2022/05/06 08:52:48;;;;;;;;;12.75;12.00;;;;;21.32;51.18;101768.53;146605;684;46016;-67
2022/05/06 08:55:40;;;;;;;;;13.75;13.25;;;;;21.39;51.25;101767.84;146609;613;46010;-67
2022/05/06 08:58:37;;;;;;;;;15.25;13.50;;;;;21.45;51.30;101767.09;146605;686;46014;-68
2022/05/06 09:01:29;;;;;;;;;15.50;12.00;;;;;21.46;51.38;101766.22;146609;581;46010;-67
2022/05/06 09:04:20;;;;;;;;;15.00;13.50;;;;;21.44;51.24;101760.94;146608;621;46012;-67
2022/05/06 09:07:25;;;;;;;;;17.25;14.50;;;;;21.43;51.73;101753.88;146606;619;46020;-67
2022/05/06 09:10:18;;;;;;;;;15.00;14.00;;;;;21.50;50.55;101754.91;146607;637;46013;-68
2022/05/06 09:13:10;;;;;;;;;14.75;13.50;;;;;21.59;50.87;101746.31;146608;579;46010;-67
2022/05/06 09:16:39;;;;;;;;;16.25;15.50;;;;;21.67;51.40;101748.25;146606;682;46014;-69
2022/05/06 09:19:31;;;;;;;;;13.75;13.75;;;;;21.64;50.83;101734.97;146609;731;46012;-68
2022/05/06 09:22:24;;;;;;;;;15.75;15.25;;;;;21.62;50.88;101736.72;146607;604;46012;-68
2022/05/06 09:25:16;;;;;;;;;14.75;13.25;;;;;21.66;51.21;101732.38;146608;582;46011;-67
2022/05/06 09:28:09;;;;;;;;;18.00;13.75;;;;;21.76;51.13;101730.84;146605;564;46016;-67
2022/05/06 09:31:10;;;;;;;;;16.00;13.50;;;;;21.80;51.20;101715.06;146606;575;47012;-69
2022/05/06 09:34:13;;;;;;;;;16.50;13.50;;;;;21.76;51.54;101722.91;146604;595;46915;-69
2022/05/06 09:37:05;;;;;;;;;18.25;14.75;;;;;21.76;51.17;101726.44;146609;624;46010;-68
2022/05/06 09:40:32;;;;;;;;;15.50;14.25;;;;;20.87;51.84;101562.63;146607;625;45017;-67
2022/05/06 09:43:26;;;;;;;;;15.00;11.50;;;;;21.86;51.67;101714.31;146610;653;46012;-67
2022/05/06 09:46:24;;;;;;;;;13.75;13.75;;;;;21.89;51.26;101717.91;146606;679;46016;-68
2022/05/06 09:49:17;;;;;;;;;9.75;9.50;;;;;21.90;50.74;101710.91;146614;573;46010;-67
2022/05/06 09:52:13;;;;;;;;;14.25;14.00;;;;;21.91;51.42;101710.03;146606;612;46016;-64
2022/05/06 09:55:06;;;;;;;;;9.50;8.75;;;;;21.98;50.90;101701.37;146608;612;46021;-66
2022/05/06 09:57:59;;;;;;;;;14.25;14.25;;;;;22.03;49.69;101699.72;146609;571;46012;-68
2022/05/06 10:00:51;;;;;;;;;12.75;12.00;;;;;22.04;50.37;101693.56;146609;657;46010;-67
2022/05/06 10:03:44;;;;;;;;;13.25;12.75;;;;;22.05;49.95;101692.69;146604;570;46014;-68
2022/05/06 10:06:38;;;;;;;;;12.00;12.00;;;;;22.05;49.68;101676.84;146611;563;45023;-66
2022/05/06 10:09:33;;;;;;;;;15.50;14.25;;;;;22.09;50.17;101668.13;146610;679;46013;-67
2022/05/06 10:12:28;;;;;;;;;10.50;10.50;;;;;21.97;48.06;101661.75;146607;654;46020;-67
2022/05/06 10:15:20;;;;;;;;;17.00;12.25;;;;;21.94;50.91;101662.56;146606;725;46915;-67
2022/05/06 10:18:12;;;;;;;;;13.25;12.00;;;;;21.98;50.97;101652.94;146607;628;47021;-66
2022/05/06 10:21:06;;;;;;;;;13.50;13.00;;;;;21.92;51.41;101644.03;146602;611;47012;-66
2022/05/06 10:24:16;;;;;;;;;11.50;10.75;;;;;21.89;51.06;101648.38;146608;654;47010;-67
2022/05/06 10:34:24;;;;;;;;;15.25;14.50;;;;;21.76;51.96;101656.91;146607;612;46012;-66
2022/05/06 10:37:20;;;;;;;;;14.00;12.00;;;;;21.85;51.89;101652.69;146608;590;46020;-66
2022/05/06 10:41:01;;;;;;;;;11.75;11.75;;;;;20.89;51.68;101485.38;146606;577;46016;-67
2022/05/06 10:43:53;;;;;;;;;14.75;13.75;;;;;21.85;51.29;101647.41;146610;572;46010;-67
2022/05/06 10:46:45;;;;;;;;;13.25;12.00;;;;;21.90;51.75;101643.13;146605;683;47012;-66
2022/05/06 10:53:38;;;;;;;;;12.50;11.50;;;;;21.88;51.91;101647.47;146607;603;46017;-66
2022/05/06 10:56:35;;;;;;;;;13.75;12.50;;;;;21.85;51.72;101633.34;146608;563;46020;-66
2022/05/06 11:00:02;;;;;;;;;13.00;13.00;;;;;20.95;51.59;101471.44;146607;637;46014;-67
2022/05/06 11:03:06;;;;;;;;;14.75;12.00;;;;;21.80;52.07;101606.81;146610;613;46020;-67
2022/05/06 11:05:58;;;;;;;;;15.25;13.25;;;;;21.94;52.20;101608.88;146605;616;46016;-66
2022/05/06 11:08:51;;;;;;;;;14.75;14.75;;;;;22.00;51.47;101609.87;146608;647;46020;-67
2022/05/06 11:11:42;;;;;;;;;15.50;13.00;;;;;22.08;51.13;101610.88;146608;667;45916;-67
2022/05/06 11:18:30;;;;;;;;;16.00;14.50;;;;;22.34;51.22;101599.94;146604;644;46016;-68
2022/05/06 11:21:31;;;;;;;;;8.00;8.00;;;;;22.34;50.52;101584.97;146610;569;46020;-66
2022/05/06 11:24:23;;;;;;;;;13.25;11.00;;;;;22.36;49.75;101582.31;146606;622;46016;-65
2022/05/06 11:27:26;;;;;;;;;14.00;9.75;;;;;22.38;51.73;101575.34;146613;573;46010;-67
2022/05/06 11:30:39;;;;;;;;;12.75;12.75;;;;;22.44;51.28;101561.34;146607;570;46017;-68
2022/05/06 11:33:34;;;;;;;;;11.50;10.25;;;;;22.46;51.40;101564.88;146604;614;46020;-66
2022/05/06 11:36:26;;;;;;;;;10.50;10.50;;;;;22.53;50.19;101556.19;146608;635;47012;-67
2022/05/06 11:39:18;;;;;;;;;13.00;11.00;;;;;22.61;50.47;101557.19;146609;582;46026;-66
2022/05/06 11:42:27;;;;;;;;;13.50;13.50;;;;;22.83;50.90;101555.72;146609;618;46016;-67
2022/05/06 11:49:10;;;;;;;;;11.25;11.25;;;;;23.45;47.59;101549.50;146610;624;46012;-66
2022/05/06 11:56:05;;;;;;;;;11.50;11.25;;;;;23.77;46.51;101533.09;146608;611;45016;-68
2022/05/06 11:59:01;;;;;;;;;11.25;11.00;;;;;23.80;46.00;101510.22;146611;626;46010;-66
2022/05/06 12:01:53;;;;;;;;;11.50;11.50;;;;;23.96;43.93;101528.00;146605;577;47012;-66
2022/05/06 12:04:45;;;;;;;;;12.50;11.50;;;;;23.90;44.27;101530.59;146609;569;46020;-68
2022/05/06 12:07:47;;;;;;;;;12.50;10.25;;;;;23.78;45.42;101532.25;146609;590;46012;-69
2022/05/06 12:10:41;;;;;;;;;11.00;10.00;;;;;23.68;45.36;101537.44;146609;570;46010;-69
2022/05/06 12:13:43;;;;;;;;;9.00;9.00;;;;;23.63;43.91;101532.94;146606;636;46917;-68
2022/05/06 12:16:35;;;;;;;;;11.75;11.75;;;;;23.54;45.74;101531.09;146607;578;46030;-67
2022/05/06 12:19:44;;;;;;;;;10.25;9.25;;;;;23.43;46.70;101533.62;146611;682;46016;-67
2022/05/06 12:22:36;;;;;;;;;14.75;13.00;;;;;23.26;46.30;101538.69;146608;573;46021;-66
2022/05/06 12:25:29;;;;;;;;;11.00;10.75;;;;;23.17;46.77;101528.00;146610;641;46016;-66
2022/05/06 12:28:24;;;;;;;;;13.25;12.50;;;;;23.10;47.76;101531.47;146613;587;46010;-66
2022/05/06 12:31:16;;;;;;;;;15.75;12.75;;;;;22.94;47.06;101526.84;146607;572;46017;-66
2022/05/06 12:34:10;;;;;;;;;15.00;13.75;;;;;22.79;48.00;101532.78;146603;681;47010;-66
2022/05/06 12:37:20;;;;;;;;;12.75;11.00;;;;;22.63;49.46;101525.50;146606;570;46917;-67
2022/05/06 12:40:39;;;;;;;;;16.50;15.00;;;;;22.60;48.87;101526.34;146610;596;46010;-66
2022/05/06 12:44:11;;;;;;;;;13.25;12.50;;;;;22.66;47.82;101530.81;146605;644;46015;-67
2022/05/06 12:50:32;;;;;;;;;12.50;12.00;;;;;22.65;46.00;101521.09;146606;685;46915;-68
2022/05/06 12:53:24;;;;;;;;;11.75;10.75;;;;;22.59;44.44;101517.53;146612;628;46020;-68
2022/05/06 12:56:22;;;;;;;;;12.25;11.50;;;;;22.50;46.60;101519.16;146606;587;47012;-66
2022/05/06 12:59:17;;;;;;;;;12.00;10.50;;;;;22.39;45.69;101521.59;146608;588;46021;-67
2022/05/06 13:02:15;;;;;;;;;12.00;12.00;;;;;22.34;46.45;101523.31;146603;701;47012;-67
2022/05/06 13:05:08;;;;;;;;;15.50;12.75;;;;;21.40;46.52;101365.06;146607;571;46010;-67
2022/05/06 13:08:06;;;;;;;;;12.00;12.00;;;;;22.24;46.66;101513.44;146607;699;46017;-66
2022/05/06 13:10:59;;;;;;;;;10.50;9.75;;;;;22.16;45.15;101517.69;146609;576;46010;-67
2022/05/06 13:13:52;;;;;;;;;15.00;11.75;;;;;22.06;46.33;101506.09;146609;585;46015;-67
2022/05/06 13:16:45;;;;;;;;;15.00;14.00;;;;;22.04;47.19;101499.88;146609;675;46010;-67
2022/05/06 13:19:37;;;;;;;;;12.00;12.00;;;;;22.06;46.02;101503.44;146606;625;46024;-67
2022/05/06 13:22:30;;;;;;;;;15.75;13.75;;;;;21.99;45.46;101499.78;146611;575;46020;-68
2022/05/06 13:25:22;;;;;;;;;14.25;13.25;;;;;21.82;45.24;101506.56;146605;609;47012;-67
2022/05/06 13:28:21;;;;;;;;;14.50;14.00;;;;;21.66;46.26;101508.91;146612;570;46010;-66
2022/05/06 13:31:14;;;;;;;;;14.25;13.00;;;;;21.48;46.97;101505.94;146597;604;48918;-67
2022/05/06 13:34:06;;;;;;;;;15.75;13.75;;;;;21.23;45.47;101508.06;146606;640;47010;-66
2022/05/06 13:37:24;;;;;;;;;14.25;13.25;;;;;19.96;44.83;101322.63;146606;610;46014;-66
2022/05/06 13:40:18;;;;;;;;;16.25;13.00;;;;;20.77;46.22;101499.19;146610;590;46010;-68
2022/05/06 13:43:10;;;;;;;;;14.50;14.50;;;;;20.69;47.26;101499.88;146607;569;47013;-67
2022/05/06 13:46:18;;;;;;;;;13.00;11.00;;;;;20.65;47.90;101496.25;146610;569;46010;-68
2022/05/06 13:49:11;;;;;;;;;11.00;10.50;;;;;20.63;46.10;101505.91;146606;697;46913;-66
2022/05/06 13:52:14;;;;;;;;;13.25;13.25;;;;;20.50;47.10;101506.47;146609;569;46010;-68
2022/05/06 13:55:09;;;;;;;;;16.75;14.75;;;;;20.44;47.25;101512.47;146606;586;47012;-67
2022/05/06 14:01:14;;;;;;;;;10.00;10.00;;;;;20.58;49.05;101509.28;146603;622;46016;-67
2022/05/06 14:04:08;;;;;;;;;11.75;9.25;;;;;20.59;47.34;101514.59;146611;576;46010;-67
2022/05/06 14:07:00;;;;;;;;;11.00;11.00;;;;;20.66;47.91;101502.44;146607;591;47917;-69
2022/05/06 14:10:03;;;;;;;;;10.25;9.75;;;;;20.70;46.26;101499.03;146611;693;46010;-67
2022/05/06 14:12:54;;;;;;;;;10.00;9.00;;;;;20.70;44.92;101497.28;146609;564;47012;-66
2022/05/06 14:15:47;;;;;;;;;8.50;8.50;;;;;20.59;44.69;101485.63;146614;619;47012;-68
2022/05/06 14:18:40;;;;;;;;;10.00;8.00;;;;;20.49;45.00;101475.69;146610;591;46917;-67
2022/05/06 14:21:32;;;;;;;;;10.25;8.25;;;;;20.28;43.49;101463.81;146609;605;46030;-66